createdAt,value
2019-04-23T00:02:04.049Z,11.77
2019-04-23T00:04:36.735Z,14.90
2019-04-23T00:07:30.016Z,8.78
2019-04-23T00:09:38.980Z,9.07
2019-04-23T00:12:23.922Z,9.17
2019-04-23T00:14:54.781Z,8.08
2019-04-23T00:17:24.967Z,8.07
2019-04-23T00:19:50.349Z,9.20
2019-04-23T00:22:28.815Z,11.57
2019-04-23T00:25:25.315Z,8.85
2019-04-23T00:27:35.561Z,8.90
2019-04-23T00:30:07.372Z,8.70
2019-04-23T00:32:36.282Z,8.13
2019-04-23T00:35:06.457Z,12.98
2019-04-23T00:37:37.323Z,10.17
2019-04-23T00:40:13.875Z,7.60
2019-04-23T00:42:41.609Z,7.57
2019-04-23T00:45:14.086Z,12.60
2019-04-23T00:47:45.693Z,13.97
2019-04-23T00:52:57.688Z,11.60
2019-04-23T00:55:33.052Z,13.57
2019-04-23T00:58:06.224Z,12.13
2019-04-23T01:03:10.250Z,10.23
2019-04-23T01:05:39.245Z,13.18
2019-04-23T01:08:16.708Z,9.63
2019-04-23T01:10:43.294Z,8.40
2019-04-23T01:13:17.446Z,13.37
2019-04-23T01:15:48.146Z,15.03
2019-04-23T01:18:32.210Z,10.73
2019-04-23T01:20:52.994Z,9.67
2019-04-23T01:23:13.882Z,10.07
2019-04-23T01:25:54.556Z,11.23
2019-04-23T01:28:50.296Z,9.67
2019-04-23T01:31:18.288Z,9.37
2019-04-23T01:33:46.168Z,14.50
2019-04-23T01:36:21.776Z,14.73
2019-04-23T01:38:56.075Z,14.37
2019-04-23T01:41:25.242Z,12.27
2019-04-23T01:44:15.631Z,8.87
2019-04-23T01:46:21.414Z,14.60
2019-04-23T01:48:52.272Z,10.63
2019-04-23T01:51:26.507Z,10.23
2019-04-23T01:53:58.220Z,10.30
2019-04-23T01:56:30.847Z,10.43
2019-04-23T02:01:32.807Z,17.07
2019-04-23T02:06:34.953Z,13.33
2019-04-23T02:09:05.027Z,12.67
2019-04-23T02:11:35.746Z,11.47
2019-04-23T02:14:09.644Z,11.50
2019-04-23T02:19:18.233Z,10.30
2019-04-23T02:24:29.906Z,11.73
2019-04-23T02:27:00.006Z,13.15
2019-04-23T02:32:24.289Z,11.43
2019-04-23T02:34:57.809Z,14.97
2019-04-23T02:37:19.389Z,10.37
2019-04-23T02:39:49.563Z,13.50
2019-04-23T02:44:39.003Z,12.20
2019-04-23T02:47:34.854Z,11.77
2019-04-23T02:50:01.511Z,13.20
2019-04-23T02:57:24.677Z,13.75
2019-04-23T03:02:37.109Z,11.50
2019-04-23T03:05:15.160Z,13.40
2019-04-23T03:10:02.883Z,13.28
2019-04-23T03:12:43.346Z,12.67
2019-04-23T03:15:21.356Z,14.30
2019-04-23T03:20:57.400Z,12.83
2019-04-23T03:23:29.054Z,15.10
2019-04-23T03:25:46.097Z,16.27
2019-04-23T03:28:27.293Z,16.37
2019-04-23T03:38:40.679Z,11.57
2019-04-23T03:41:06.963Z,16.03
2019-04-23T03:43:33.334Z,17.87
2019-04-23T03:51:03.126Z,16.90
2019-04-23T03:53:47.981Z,14.60
2019-04-23T04:01:11.937Z,16.27
2019-04-23T04:06:39.519Z,13.60
2019-04-23T04:08:53.097Z,14.93
2019-04-23T04:11:14.221Z,19.53
2019-04-23T04:13:51.029Z,14.77
2019-04-23T04:16:42.859Z,16.30
2019-04-23T04:18:55.271Z,16.00
2019-04-23T04:21:29.878Z,17.43
2019-04-23T04:24:05.057Z,16.73
2019-04-23T04:26:41.993Z,16.63
2019-04-23T04:29:00.632Z,15.07
2019-04-23T04:31:42.856Z,19.23
2019-04-23T04:36:58.558Z,17.30
2019-04-23T04:39:19.761Z,17.20
2019-04-23T04:41:31.251Z,13.80
2019-04-23T04:46:44.196Z,16.57
2019-04-23T04:51:51.847Z,16.50
2019-04-23T04:56:44.920Z,16.90
2019-04-23T05:01:52.147Z,21.73
2019-04-23T05:04:30.791Z,19.80
2019-04-23T05:09:38.098Z,16.27
2019-04-23T05:12:17.175Z,16.90
2019-04-23T05:19:45.777Z,20.47
2019-04-23T05:24:36.678Z,19.30
2019-04-23T05:27:15.559Z,20.57
2019-04-23T05:29:39.094Z,17.87
2019-04-23T05:32:28.815Z,17.97
2019-04-23T05:34:40.162Z,19.23
2019-04-23T05:37:15.988Z,19.57
2019-04-23T05:39:45.459Z,17.53
2019-04-23T05:42:31.953Z,17.67
2019-04-23T05:44:52.772Z,21.20
2019-04-23T05:47:20.318Z,26.13
2019-04-23T05:49:57.258Z,18.07
2019-04-23T05:52:27.852Z,22.70
2019-04-23T05:55:04.074Z,24.00
2019-04-23T05:57:28.578Z,19.80
2019-04-23T06:00:04.134Z,19.20
2019-04-23T06:02:35.866Z,22.80
2019-04-23T06:05:05.998Z,18.13
2019-04-23T06:07:35.886Z,19.03
2019-04-23T06:10:04.710Z,16.50
2019-04-23T06:12:42.272Z,14.90
2019-04-23T06:15:11.538Z,18.17
2019-04-23T06:17:37.727Z,18.43
2019-04-23T06:25:31.011Z,17.83
2019-04-23T06:27:48.290Z,15.80
2019-04-23T06:30:41.905Z,18.40
2019-04-23T06:32:58.021Z,20.07
2019-04-23T06:35:23.822Z,12.70
2019-04-23T06:38:13.637Z,16.90
2019-04-23T06:40:26.659Z,17.50
2019-04-23T06:43:01.008Z,14.47
2019-04-23T06:45:28.867Z,14.83
2019-04-23T06:48:08.802Z,13.10
2019-04-23T06:50:36.947Z,17.70
2019-04-23T06:52:58.872Z,18.60
2019-04-23T06:55:35.736Z,16.57
2019-04-23T06:58:15.073Z,17.50
2019-04-23T07:00:42.050Z,15.53
2019-04-23T07:03:15.061Z,19.03
2019-04-23T07:06:20.765Z,16.00
2019-04-23T07:16:19.256Z,15.40
2019-04-23T07:18:50.361Z,18.77
2019-04-23T07:21:23.529Z,17.60
2019-04-23T07:24:08.543Z,14.33
2019-04-23T07:28:53.165Z,17.63
2019-04-23T07:31:29.655Z,14.50
2019-04-23T07:33:59.639Z,15.47
2019-04-23T07:36:31.053Z,24.90
2019-04-23T07:39:21.920Z,19.33
2019-04-23T07:44:33.129Z,13.93
2019-04-23T07:47:10.410Z,13.23
2019-04-23T07:49:23.628Z,11.87
2019-04-23T07:52:03.565Z,13.70
2019-04-23T07:54:32.217Z,12.57
2019-04-23T07:57:02.886Z,12.60
2019-04-23T07:59:33.535Z,9.70
2019-04-23T08:02:08.032Z,12.03
2019-04-23T08:04:36.352Z,14.23
2019-04-23T08:07:08.242Z,13.20
2019-04-23T08:09:43.961Z,13.20
2019-04-23T08:12:13.314Z,17.40
2019-04-23T08:14:47.962Z,15.77
2019-04-23T08:17:10.840Z,14.07
2019-04-23T08:19:49.615Z,11.90
2019-04-23T08:25:01.102Z,12.77
2019-04-23T08:27:24.200Z,17.17
2019-04-23T08:29:55.671Z,15.13
2019-04-23T08:32:21.601Z,15.23
2019-04-23T08:35:03.151Z,14.07
2019-04-23T08:40:01.525Z,14.50
2019-04-23T08:48:04.268Z,14.80
2019-04-23T08:50:27.639Z,11.53
2019-04-23T08:53:05.226Z,10.37
2019-04-23T08:55:38.782Z,12.23
2019-04-23T08:58:06.234Z,10.23
2019-04-23T09:00:49.905Z,23.10
2019-04-23T09:05:50.563Z,12.07
2019-04-23T09:10:50.254Z,11.37
2019-04-23T09:13:48.265Z,14.63
2019-04-23T09:15:49.939Z,16.73
2019-04-23T09:18:23.100Z,16.53
2019-04-23T09:20:49.760Z,12.40
2019-04-23T09:23:30.873Z,14.67
2019-04-23T09:25:56.212Z,20.20
2019-04-23T09:28:36.552Z,14.67
2019-04-23T09:31:14.233Z,10.77
2019-04-23T09:41:31.184Z,15.73
2019-04-23T09:44:51.032Z,14.50
2019-04-23T09:47:08.267Z,12.00
2019-04-23T09:49:34.903Z,16.03
2019-04-23T09:52:08.024Z,14.63
2019-04-23T09:54:42.192Z,12.07
2019-04-23T09:57:03.842Z,14.43
2019-04-23T10:02:01.552Z,13.70
2019-04-23T10:04:28.131Z,17.50
2019-04-23T10:07:01.568Z,11.47
2019-04-23T10:09:18.843Z,13.80
2019-04-23T10:11:51.057Z,9.03
2019-04-23T10:14:21.079Z,11.67
2019-04-23T10:16:51.648Z,12.93
2019-04-23T10:19:22.615Z,12.13
2019-04-23T10:21:53.342Z,13.03
2019-04-23T10:24:23.505Z,11.30
2019-04-23T10:26:53.281Z,16.77
2019-04-23T10:29:27.816Z,13.20
2019-04-23T10:31:57.845Z,10.23
2019-04-23T10:34:29.244Z,13.33
2019-04-23T10:36:59.622Z,12.17
2019-04-23T10:39:35.318Z,13.73
2019-04-23T10:42:03.324Z,11.10
2019-04-23T10:44:50.108Z,16.13
2019-04-23T10:48:12.354Z,14.47
2019-04-23T10:50:46.518Z,14.07
2019-04-23T10:58:35.147Z,13.10
2019-04-23T11:00:59.918Z,12.97
2019-04-23T11:06:06.752Z,20.07
2019-04-23T11:08:33.062Z,15.67
2019-04-23T11:11:11.324Z,14.27
2019-04-23T11:13:56.558Z,19.33
2019-04-23T11:16:47.303Z,12.43
2019-04-23T11:18:53.599Z,15.67
2019-04-23T11:23:49.451Z,26.43
2019-04-23T11:26:26.418Z,18.37
2019-04-23T11:28:42.924Z,15.83
2019-04-23T11:31:30.913Z,11.77
2019-04-23T11:34:01.519Z,12.17
2019-04-23T11:36:49.875Z,18.77
2019-04-23T11:41:32.355Z,11.60
2019-04-23T11:43:55.315Z,17.17
2019-04-23T11:49:22.437Z,21.30
2019-04-23T11:51:54.730Z,16.93
2019-04-23T11:54:07.314Z,18.97
2019-04-23T11:57:14.191Z,19.37
2019-04-23T11:59:29.626Z,19.33
2019-04-23T12:04:28.440Z,16.03
2019-04-23T12:09:48.801Z,14.77
2019-04-23T12:12:17.157Z,19.57
2019-04-23T12:14:47.632Z,15.83
2019-04-23T12:17:33.173Z,11.17
2019-04-23T12:25:07.647Z,11.33
2019-04-23T12:27:31.441Z,17.33
2019-04-23T12:30:03.132Z,15.00
2019-04-23T12:35:08.353Z,28.03
2019-04-23T12:40:19.865Z,16.53
2019-04-23T12:58:12.508Z,18.70
2019-04-23T13:00:36.982Z,18.80
2019-04-23T13:03:02.904Z,18.43
2019-04-23T13:05:33.976Z,20.37
2019-04-23T13:08:15.800Z,24.60
2019-04-23T13:10:40.993Z,15.17
2019-04-23T13:13:32.402Z,17.97
2019-04-23T13:18:17.492Z,21.17
2019-04-23T13:20:41.511Z,19.47
2019-04-23T13:23:22.284Z,16.40
2019-04-23T13:26:16.054Z,12.53
2019-04-23T13:28:38.783Z,17.53
2019-04-23T13:31:12.708Z,18.73
2019-04-23T13:33:47.215Z,15.63
2019-04-23T13:48:47.211Z,18.77
2019-04-23T13:53:51.358Z,14.27
2019-04-23T13:57:13.011Z,15.87
2019-04-23T13:59:03.611Z,13.83
2019-04-23T14:01:35.891Z,13.63
2019-04-23T14:04:14.187Z,11.43
2019-04-23T14:11:51.836Z,14.53
2019-04-23T14:14:32.733Z,13.80
2019-04-23T14:16:50.949Z,28.20
2019-04-23T14:19:13.007Z,19.93
2019-04-23T14:21:51.807Z,13.90
2019-04-23T14:24:45.553Z,16.07
2019-04-23T14:26:52.536Z,18.47
2019-04-23T14:29:31.807Z,19.97
2019-04-23T14:32:07.271Z,17.03
2019-04-23T14:34:24.901Z,16.87
2019-04-23T14:42:09.892Z,14.47
2019-04-23T14:44:31.579Z,18.13
2019-04-23T14:47:18.375Z,15.03
2019-04-23T14:50:12.909Z,30.20
2019-04-23T14:52:21.672Z,14.30
2019-04-23T15:02:38.251Z,16.37
2019-04-23T15:05:11.609Z,16.50
2019-04-23T15:07:39.793Z,18.20
2019-04-23T15:10:22.004Z,18.33
2019-04-23T15:15:13.467Z,26.30
2019-04-23T15:17:40.602Z,30.10
2019-04-23T15:20:17.802Z,19.23
2019-04-23T15:23:02.734Z,28.67
2019-04-23T15:28:05.352Z,18.70
2019-04-23T15:30:17.547Z,27.00
2019-04-23T15:33:03.768Z,23.07
2019-04-23T15:40:25.154Z,32.47
2019-04-23T15:43:05.822Z,23.30
2019-04-23T15:45:29.794Z,25.40
2019-04-23T15:48:08.502Z,31.37
2019-04-23T15:53:07.788Z,20.77
2019-04-23T15:55:44.184Z,22.77
2019-04-23T15:58:14.508Z,16.43
2019-04-23T16:00:46.887Z,22.63
2019-04-23T16:02:50.789Z,32.77
2019-04-23T16:05:27.743Z,33.07
2019-04-23T16:08:18.057Z,28.73
2019-04-23T16:11:10.445Z,20.13
2019-04-23T16:13:31.244Z,37.73
2019-04-23T16:16:20.648Z,23.40
2019-04-23T16:18:41.868Z,32.27
2019-04-23T16:21:20.393Z,25.20
2019-04-23T16:24:01.103Z,25.37
2019-04-23T16:26:23.066Z,33.13
2019-04-23T16:29:07.315Z,30.37
2019-04-23T16:31:35.526Z,29.73
2019-04-23T16:34:13.598Z,30.07
2019-04-23T16:36:38.634Z,29.33
2019-04-23T16:39:12.031Z,37.53
2019-04-23T16:41:51.176Z,36.87
2019-04-23T16:46:54.134Z,43.67
2019-04-23T16:49:19.174Z,34.60
2019-04-23T16:52:03.642Z,39.53
2019-04-23T16:54:29.197Z,40.90
2019-04-23T16:59:18.426Z,40.43
2019-04-23T17:01:59.629Z,31.30
2019-04-23T17:04:24.741Z,50.50
2019-04-23T17:06:58.262Z,42.07
2019-04-23T17:09:33.642Z,48.23
2019-04-23T17:12:05.987Z,32.87
2019-04-23T17:14:27.549Z,32.50
2019-04-23T17:16:53.454Z,44.67
2019-04-23T17:22:04.557Z,30.23
2019-04-23T17:24:30.874Z,33.00
2019-04-23T17:29:41.527Z,47.37
2019-04-23T17:32:11.686Z,31.07
2019-04-23T17:35:01.597Z,24.90
2019-04-23T17:40:12.205Z,27.83
2019-04-23T17:42:50.947Z,31.67
2019-04-23T17:48:04.118Z,30.53
2019-04-23T17:50:34.051Z,37.27
2019-04-23T17:53:03.435Z,33.13
2019-04-23T17:55:57.054Z,44.90
2019-04-23T17:58:07.569Z,33.43
2019-04-23T18:00:40.559Z,24.00
2019-04-23T18:05:40.075Z,30.87
2019-04-23T18:08:15.369Z,31.70
2019-04-23T18:10:48.706Z,23.13
2019-04-23T18:13:26.216Z,28.93
2019-04-23T18:15:57.191Z,36.60
2019-04-23T18:18:33.144Z,26.50
2019-04-23T18:21:14.215Z,26.70
2019-04-23T18:23:42.352Z,35.77
2019-04-23T18:26:20.790Z,30.93
2019-04-23T18:28:58.661Z,29.00
2019-04-23T18:31:44.809Z,24.43
2019-04-23T18:36:33.633Z,39.37
2019-04-23T18:39:06.806Z,29.27
2019-04-23T18:41:43.309Z,31.10
2019-04-23T18:44:19.234Z,28.30
2019-04-23T18:46:42.101Z,23.40
2019-04-23T18:49:11.381Z,23.27
2019-04-23T18:51:58.087Z,36.17
2019-04-23T18:54:14.718Z,43.30
2019-04-23T18:57:09.961Z,32.57
2019-04-23T19:02:08.044Z,36.70
2019-04-23T19:05:03.465Z,31.17
2019-04-23T19:07:31.729Z,38.67
2019-04-23T19:12:41.416Z,36.23
2019-04-23T19:15:21.581Z,33.60
2019-04-23T19:20:26.117Z,30.93
2019-04-23T19:22:53.085Z,22.20
2019-04-23T19:25:23.007Z,32.00
2019-04-23T19:27:59.289Z,25.90
2019-04-23T19:30:41.491Z,37.20
2019-04-23T19:33:18.296Z,35.20
2019-04-23T19:35:58.960Z,22.07
2019-04-23T19:38:13.642Z,30.60
2019-04-23T19:40:51.886Z,23.97
2019-04-23T19:43:19.936Z,27.97
2019-04-23T19:45:55.715Z,27.93
2019-04-23T19:53:32.183Z,21.73
2019-04-23T19:56:03.898Z,22.60
2019-04-23T19:58:32.495Z,16.17
2019-04-23T20:01:10.257Z,13.10
2019-04-23T20:06:06.337Z,15.97
2019-04-23T20:08:48.602Z,21.10
2019-04-23T20:11:04.573Z,15.77
2019-04-23T20:13:47.265Z,11.03
2019-04-23T20:16:10.989Z,20.03
2019-04-23T20:21:04.135Z,12.63
2019-04-23T20:29:11.860Z,16.87
2019-04-23T20:34:24.132Z,15.43
2019-04-23T20:39:32.745Z,12.73
2019-04-23T20:49:42.648Z,15.50
2019-04-23T20:52:06.233Z,14.57
2019-04-23T20:57:31.628Z,15.80
2019-04-23T21:05:24.196Z,13.73
2019-04-23T21:10:27.230Z,19.27
2019-04-23T21:15:29.086Z,18.53
2019-04-23T21:23:04.670Z,22.07
2019-04-23T21:25:30.486Z,18.10
2019-04-23T21:38:55.826Z,22.30
2019-04-23T21:51:41.965Z,19.83
2019-04-23T21:54:02.085Z,22.40
2019-04-23T21:56:35.348Z,15.50
2019-04-23T22:06:41.353Z,19.97
2019-04-23T22:09:12.419Z,28.20
2019-04-23T22:16:50.333Z,26.77
2019-04-23T22:19:14.958Z,17.93
2019-04-23T22:21:47.260Z,20.13
2019-04-23T22:26:45.419Z,19.27
2019-04-23T22:34:34.098Z,29.40
2019-04-23T22:37:07.584Z,24.47
2019-04-23T22:39:21.942Z,26.63
2019-04-23T22:44:48.607Z,27.07
2019-04-23T22:47:04.310Z,23.40
2019-04-23T22:49:41.695Z,20.37
2019-04-23T22:52:09.442Z,28.13
2019-04-23T22:54:41.935Z,25.03
2019-04-23T22:57:04.747Z,21.40
2019-04-23T23:02:29.843Z,28.53
2019-04-23T23:05:10.044Z,29.70
2019-04-23T23:07:28.875Z,19.53
2019-04-23T23:10:12.543Z,21.17
2019-04-23T23:12:43.722Z,27.77
2019-04-23T23:17:48.383Z,39.67
2019-04-23T23:20:20.910Z,24.20
2019-04-23T23:22:46.074Z,26.20
2019-04-23T23:25:11.428Z,22.83
2019-04-23T23:27:39.701Z,31.27
2019-04-23T23:30:13.670Z,24.47
2019-04-23T23:32:51.771Z,26.63
2019-04-23T23:37:41.838Z,27.17
2019-04-23T23:40:21.925Z,28.43
2019-04-23T23:42:56.229Z,29.13
2019-04-23T23:48:18.620Z,34.10
2019-04-23T23:51:07.937Z,26.27
2019-04-23T23:53:29.869Z,22.90
2019-04-23T23:56:05.437Z,29.30
2019-04-23T23:58:40.742Z,23.33
